Schley, Wisconsin
Current Conditions -  °F | °C
As of 8:15 AM on Friday 31 Oct 2014 (Local Time) from KRRL Reporting Station
Scattered Clouds Scattered Clouds  
Wind Chill: 16°   Ceiling: Unl
Heat Index: 28°   Visibility: 10mi
Dew Point: 21°   Wind: 18mph
Humidity: 74%   Direction: 20°NNE
Pressure: 30.32"   Gusts: 23mph
Location:  45.2167°N, 89.8732°W
Report Text: KRRL 311315Z AUTO 02016G20KT 10SM SCT033 M02/M06 A3032 RMK AO2 T10201060
Loading
Personal Weather Stations






























Interactive Weather Map
Tropical Storm Tracking
New forecast layout! Learn more

10-Day Weather Forecast

Advertisements
Track Severe Weather on mobile